ADDS METAR Data INFO
IDs: Format: Raw Decoded Include TAF

Data at: 2222 UTC 24 Jun 2018

KDSM 242154Z 32011KT 6SM -TSRA BR FEW046 SCT060CB OVC090 21/19 A2996 RMK AO2 WSHFT 2054 LTG DSNT ALQDS RAB20 SLP140 OCNL LTGICCCCG S-OHD-N TS S-OHD-N MOV N P0009 T02110189
KDSM 242113Z 20016G23KT 10SM TS BKN024CB BKN034 OVC250 24/18 A2993 RMK AO2 WSHFT 2054 LTG DSNT ALQDS OCNL LTGICCCCG SE-NW TS SE-NW MOV N T02390178
KDSM 242054Z 11010KT 10SM TS SCT030 SCT050CB BKN250 27/21 A2989 RMK AO2 LTG DSNT ALQDS TSB37 SLP115 OCNL LTGICCG VC SE-SW AND DSNT W-NW TS VC SE-SW MOV N CB DSNT W-NW MOV N T02720211 55003
KDSM 242041Z 11011KT 10SM TS SCT030 SCT050CB BKN250 27/21 A2988 RMK AO2 LTG DSNT ALQDS TSB37 OCNL LTGICCG VC SE-S AND DSNT W-NW TS VC SE-S MOV N CB DSNT W-NW MOV N T02720211
KDSM 241954Z 10010G18KT 10SM FEW033 SCT065TCU BKN250 28/21 A2988 RMK AO2 LTG DSNT SE-W SLP110 FRQ LTGICCG DSNT S-W CB DSNT S-W MOV N TCU SE-S T02780211
KDSM 241854Z 08011G16KT 10SM FEW030 FEW080 SCT140 BKN250 29/22 A2990 RMK AO2 SLP116 T02890222
KDSM 241754Z 08009KT 10SM FEW080 FEW110 SCT140 BKN250 28/22 A2990 RMK AO2 SLP118 60000 T02830217 10283 20200 50010
KDSM 241654Z 10007KT 10SM FEW080 SCT110 SCT140 OVC250 26/21 A2991 RMK AO2 RAB1558E21 SLP120 OCNL LTGICCG DSNT N CB DSNT N MOV E P0000 T02610211
KDSM 241554Z 09004KT 10SM SCT070 SCT110 OVC250 25/20 A2990 RMK AO2 LTG DSNT SE AND NW SLP120 OCNL LTGICCG DSNT NE AND NW CB DSNT NE AND NW MOV E TCU DSNT E T02500200
KDSM 241454Z 13008KT 10SM FEW060 SCT090 BKN250 26/19 A2987 RMK AO2 SLP108 OCNL LTGICCG DSNT NE AND NW CB DSNT NE AND NW MOV E TCU DSNT E AND W T02560194 50006
KDSM 241354Z 15008KT 10SM FEW060TCU SCT090 BKN250 24/19 A2987 RMK AO2 SLP109 CB DSNT N AND SW MOV E TCU N AND DSNT E AND W T02390189
KDSM 241254Z 14009KT 10SM FEW060TCU SCT090 SCT110 BKN250 22/18 A2987 RMK AO2 SLP107 CB DSNT N MOV E TCU N AND DSNT W T02170178
KDSM 241154Z 13007KT 10SM FEW065TCU FEW085 SCT250 20/17 A2985 RMK AO2 SLP103 TCU VC NW T02000172 10206 20189 53011
KDSM 241054Z 14006KT 10SM BKN060 BKN250 19/17 A2983 RMK AO2 SLP096 TCU DSNT W-NW T01890167
KDSM 240954Z 12006KT 10SM FEW050 FEW250 19/17 A2981 RMK AO2 SLP087 T01940167
KDSM 240854Z 13005KT 10SM FEW050 FEW080 20/17 A2982 RMK AO2 SLP091 OCNL LTGIC DSNT W AND NW CB DSNT W AND NW MOV E T02000172 51005
KDSM 240754Z 11004KT 10SM FEW046 FEW055 SCT160 21/17 A2982 RMK AO2 SLP090 T02060172
KDSM 240654Z 13004KT 10SM BKN042 BKN160 20/17 A2981 RMK AO2 SLP089 T02000172
KDSM 240554Z 14006KT 10SM FEW160 FEW250 21/17 A2981 RMK AO2 SLP087 T02060172 10250 20200 402670172 50000
KDSM 240454Z 13005KT 10SM FEW170 22/17 A2981 RMK AO2 SLP089 T02170172
KDSM 240354Z 15004KT 10SM FEW200 FEW250 21/17 A2983 RMK AO2 SLP096 T02110172
KDSM 240254Z 14005KT 10SM FEW200 FEW250 SCT300 22/18 A2981 RMK AO2 SLP087 T02170178 53011
KDSM 240154Z 17004KT 10SM FEW200 FEW300 23/18 A2979 RMK AO2 SLP079 T02280178
KDSM 240054Z 18005KT 10SM FEW050 FEW200 FEW300 24/18 A2978 RMK AO2 SLP076 TCU DSNT E T02390178
KDSM 232354Z 19007KT 10SM FEW050 FEW200 SCT300 25/17 A2977 RMK AO2 SLP075 T02500167 10267 20244 55000
KDSM 232254Z 16007KT 10SM FEW038 SCT065 SCT180 BKN250 25/16 A2977 RMK AO2 SLP074 T02500161
KDSM 232154Z 16006KT 10SM FEW033 SCT070 BKN250 25/17 A2978 RMK AO2 SLP077 T02500172
KDSM 232054Z VRB06KT 10SM FEW033 SCT065 BKN250 26/18 A2977 RMK AO2 SLP076 T02610178 58004
KDSM 231954Z VRB04KT 10SM SCT036 SCT080 BKN250 25/16 A2978 RMK AO2 SLP078 T02500161
KDSM 231854Z 21003KT 10SM FEW036 SCT080 BKN250 25/17 A2978 RMK AO2 SLP079 T02500167
KDSM 231754Z 04KT VRB 10SM FEW050 FEW080 SCT180 BKN250 26/17 A2979 RMK AO2 SLP079 T02560167 10261 20194 58001
KDSM 231654Z 01003KT 10SM SCT055 BKN075 OVC180 24/17 A2980 RMK AO2 SLP084 T02390167
KDSM 231554Z 29004KT 9SM SCT055 OVC075 23/17 A2981 RMK AO2 SLP088 T02280172
KDSM 231454Z 26004KT 10SM FEW050 BKN070 OVC180 22/16 A2979 RMK AO2 SLP082 T02220161 50009
KDSM 231354Z 18006KT 10SM FEW055 FEW140 BKN180 BKN250 21/17 A2979 RMK AO2 SLP083 T02110167
KDSM 231254Z 00000KT 10SM FEW055 FEW080 SCT140 BKN180 BKN250 21/17 A2979 RMK AO2 SLP082 T02110172
KDSM 231154Z 04003KT 10SM FEW055 FEW160 FEW250 19/17 A2976 RMK AO2 SLP073 T01940167 10206 20172 56008
KDSM 231054Z 00000KT 10SM MIFG FEW050 FEW080 SCT250 17/16 A2977 RMK AO2 SLP076 T01720161